PABE/BET METAR and TAF weather

Enter ICAO airport designator
Station Type Date Time Source
PABE METAR 2019/06/26 17:53 UTC NOAA

PABE 261753Z 15015KT 10SM -RA BKN095 17/14 A3001 RMK AO2 RAB45 SLP163 P0000 60000 T01670144 53004


Station Type Date Time Source
PABE Decoded METAR 2019/06/26 17:53 UTC NOAA

BETHEL AIRPORT, AK, United States (PABE) 60-47N 161-50W 46M
Jun 26, 2019 - 01:53 PM EDT / 2019.06.26 1753 UTC
Wind: from the SSE (150 degrees) at 17 MPH (15 KT):0
Visibility: 10 mile(s):0
Sky conditions: mostly cloudy
Weather: light rain
Precipitation last hour: A trace
Temperature: 62.1 F (16.7 C)
Dew Point: 57.9 F (14.4 C)
Relative Humidity: 86%
Pressure (altimeter): 30.01 in. Hg (1016 hPa)
Pressure tendency: 0.01 inches (0.4 hPa) higher than three hours ago
ob: PABE 261753Z 15015KT 10SM -RA BKN095 17/14 A3001 RMK AO2 RAB45 SLP163 P0000 60000 T01670144 53004
cycle: 18

Station Type Date Time Source
PABE TAF 2019/06/26 18:34 UTC NOAA

TAF PABE 261732Z 2618/2718 15015KT P6SM -SHRA SCT025 BKN050 OVC100
FM262200 16016G24KT P6SM -SHRA SCT015 BKN025
FM270200 18012KT P6SM SCT025 OVC050

Example: see airport list